sensor_id;sensor_type;location;lat;lon;timestamp;pressure;altitude;pressure_sealevel;temperature;humidity
47726;BME280;33483;48.294;16.388;2023-05-20T00:00:13;100146.28;;;10.24;100.00
47726;BME280;33483;48.294;16.388;2023-05-20T00:03:00;100144.25;;;10.30;100.00
47726;BME280;33483;48.294;16.388;2023-05-20T00:05:28;100149.28;;;10.32;100.00
47726;BME280;33483;48.294;16.388;2023-05-20T00:07:55;100148.78;;;10.33;100.00
47726;BME280;33483;48.294;16.388;2023-05-20T00:10:22;100152.78;;;10.32;100.00
47726;BME280;33483;48.294;16.388;2023-05-20T00:12:49;100146.78;;;10.28;100.00
47726;BME280;33483;48.294;16.388;2023-05-20T00:15:16;100145.78;;;10.20;100.00
47726;BME280;33483;48.294;16.388;2023-05-20T00:17:43;100142.31;;;10.14;100.00
47726;BME280;33483;48.294;16.388;2023-05-20T00:20:10;100153.88;;;10.07;100.00
47726;BME280;33483;48.294;16.388;2023-05-20T00:22:38;100147.34;;;10.04;100.00
47726;BME280;33483;48.294;16.388;2023-05-20T00:25:07;100141.81;;;9.99;100.00
47726;BME280;33483;48.294;16.388;2023-05-20T00:27:34;100134.28;;;9.99;100.00
47726;BME280;33483;48.294;16.388;2023-05-20T00:30:02;100139.09;;;9.93;100.00
47726;BME280;33483;48.294;16.388;2023-05-20T00:32:29;100135.81;;;9.95;100.00
47726;BME280;33483;48.294;16.388;2023-05-20T00:34:57;100144.88;;;9.90;100.00
47726;BME280;33483;48.294;16.388;2023-05-20T00:37:24;100132.56;;;9.85;100.00
47726;BME280;33483;48.294;16.388;2023-05-20T00:39:52;100136.59;;;9.84;100.00
47726;BME280;33483;48.294;16.388;2023-05-20T00:42:26;100131.59;;;9.77;100.00
47726;BME280;33483;48.294;16.388;2023-05-20T00:44:54;100120.75;;;9.79;100.00
47726;BME280;33483;48.294;16.388;2023-05-20T00:47:26;100125.28;;;9.77;100.00
47726;BME280;33483;48.294;16.388;2023-05-20T00:49:55;100123.28;;;9.72;100.00
47726;BME280;33483;48.294;16.388;2023-05-20T00:52:23;100122.78;;;9.68;100.00
47726;BME280;33483;48.294;16.388;2023-05-20T00:54:51;100126.31;;;9.63;100.00
47726;BME280;33483;48.294;16.388;2023-05-20T00:57:18;100123.34;;;9.55;100.00
47726;BME280;33483;48.294;16.388;2023-05-20T00:59:45;100116.53;;;9.51;100.00
47726;BME280;33483;48.294;16.388;2023-05-20T01:02:15;100117.06;;;9.49;100.00
47726;BME280;33483;48.294;16.388;2023-05-20T01:04:43;100123.34;;;9.50;100.00
47726;BME280;33483;48.294;16.388;2023-05-20T01:07:16;100112.78;;;9.48;100.00
47726;BME280;33483;48.294;16.388;2023-05-20T01:09:44;100107.25;;;9.43;100.00
47726;BME280;33483;48.294;16.388;2023-05-20T01:12:20;100101.72;;;9.43;100.00
47726;BME280;33483;48.294;16.388;2023-05-20T01:14:49;100102.97;;;9.42;100.00
47726;BME280;33483;48.294;16.388;2023-05-20T01:17:18;100107.25;;;9.43;100.00
47726;BME280;33483;48.294;16.388;2023-05-20T01:19:47;100108.50;;;9.47;100.00
47726;BME280;33483;48.294;16.388;2023-05-20T01:22:14;100102.72;;;9.45;100.00
47726;BME280;33483;48.294;16.388;2023-05-20T01:24:45;100101.47;;;9.41;100.00
47726;BME280;33483;48.294;16.388;2023-05-20T01:27:15;100105.00;;;9.41;100.00
47726;BME280;33483;48.294;16.388;2023-05-20T01:29:42;100107.00;;;9.35;100.00
47726;BME280;33483;48.294;16.388;2023-05-20T01:32:10;100106.00;;;9.38;100.00
47726;BME280;33483;48.294;16.388;2023-05-20T01:34:38;100101.22;;;9.39;100.00
47726;BME280;33483;48.294;16.388;2023-05-20T01:37:07;100107.00;;;9.41;100.00
47726;BME280;33483;48.294;16.388;2023-05-20T01:39:35;100108.28;;;9.34;100.00
47726;BME280;33483;48.294;16.388;2023-05-20T01:42:03;100109.78;;;9.30;100.00
47726;BME280;33483;48.294;16.388;2023-05-20T01:44:32;100106.75;;;9.28;100.00
47726;BME280;33483;48.294;16.388;2023-05-20T01:46:59;100100.25;;;9.25;100.00
47726;BME280;33483;48.294;16.388;2023-05-20T01:49:27;100102.50;;;9.21;100.00
47726;BME280;33483;48.294;16.388;2023-05-20T01:51:54;100102.50;;;9.16;100.00
47726;BME280;33483;48.294;16.388;2023-05-20T01:54:22;100098.00;;;9.13;100.00
47726;BME280;33483;48.294;16.388;2023-05-20T01:56:49;100096.00;;;9.13;100.00
47726;BME280;33483;48.294;16.388;2023-05-20T01:59:16;100096.50;;;9.12;100.00
47726;BME280;33483;48.294;16.388;2023-05-20T02:01:43;100100.50;;;9.10;100.00
47726;BME280;33483;48.294;16.388;2023-05-20T02:04:14;100097.47;;;9.08;100.00
47726;BME280;33483;48.294;16.388;2023-05-20T02:06:45;100105.56;;;9.06;100.00
47726;BME280;33483;48.294;16.388;2023-05-20T02:09:12;100094.75;;;9.03;100.00
47726;BME280;33483;48.294;16.388;2023-05-20T02:11:43;100094.25;;;8.99;100.00
47726;BME280;33483;48.294;16.388;2023-05-20T02:14:10;100091.72;;;8.95;100.00
47726;BME280;33483;48.294;16.388;2023-05-20T02:16:37;100090.97;;;8.95;100.00
47726;BME280;33483;48.294;16.388;2023-05-20T02:19:05;100091.47;;;8.93;100.00
47726;BME280;33483;48.294;16.388;2023-05-20T02:21:32;100100.03;;;9.06;100.00
47726;BME280;33483;48.294;16.388;2023-05-20T02:24:01;100093.47;;;8.98;100.00
47726;BME280;33483;48.294;16.388;2023-05-20T02:26:30;100096.00;;;9.02;100.00
47726;BME280;33483;48.294;16.388;2023-05-20T02:28:57;100101.25;;;9.05;100.00
47726;BME280;33483;48.294;16.388;2023-05-20T02:31:24;100102.78;;;9.06;100.00
47726;BME280;33483;48.294;16.388;2023-05-20T02:33:54;100107.03;;;9.02;100.00
47726;BME280;33483;48.294;16.388;2023-05-20T02:36:21;100099.75;;;8.99;100.00
47726;BME280;33483;48.294;16.388;2023-05-20T02:38:49;100098.00;;;8.96;100.00
47726;BME280;33483;48.294;16.388;2023-05-20T02:41:16;100097.25;;;8.95;100.00
47726;BME280;33483;48.294;16.388;2023-05-20T02:43:43;100095.25;;;8.90;100.00
47726;BME280;33483;48.294;16.388;2023-05-20T02:46:11;100095.50;;;8.87;100.00
47726;BME280;33483;48.294;16.388;2023-05-20T02:48:38;100092.22;;;8.83;100.00
47726;BME280;33483;48.294;16.388;2023-05-20T02:51:08;100097.00;;;8.77;100.00
47726;BME280;33483;48.294;16.388;2023-05-20T02:53:35;100099.50;;;8.75;100.00
47726;BME280;33483;48.294;16.388;2023-05-20T02:56:03;100097.00;;;8.71;100.00
47726;BME280;33483;48.294;16.388;2023-05-20T02:58:32;100105.03;;;8.69;100.00
47726;BME280;33483;48.294;16.388;2023-05-20T03:01:01;100098.47;;;8.67;100.00
47726;BME280;33483;48.294;16.388;2023-05-20T03:03:29;100092.22;;;8.66;100.00
47726;BME280;33483;48.294;16.388;2023-05-20T03:05:58;100095.47;;;8.65;100.00
47726;BME280;33483;48.294;16.388;2023-05-20T03:08:25;100094.22;;;8.60;100.00
47726;BME280;33483;48.294;16.388;2023-05-20T03:10:52;100091.19;;;8.58;100.00
47726;BME280;33483;48.294;16.388;2023-05-20T03:13:20;100095.22;;;8.57;100.00
47726;BME280;33483;48.294;16.388;2023-05-20T03:15:47;100092.47;;;8.57;100.00
47726;BME280;33483;48.294;16.388;2023-05-20T03:18:14;100095.47;;;8.59;100.00
47726;BME280;33483;48.294;16.388;2023-05-20T03:20:43;100089.19;;;8.64;100.00
47726;BME280;33483;48.294;16.388;2023-05-20T03:23:10;100096.75;;;8.69;100.00
47726;BME280;33483;48.294;16.388;2023-05-20T03:25:38;100094.97;;;8.72;100.00
47726;BME280;33483;48.294;16.388;2023-05-20T03:28:06;100089.97;;;8.76;100.00
47726;BME280;33483;48.294;16.388;2023-05-20T03:30:36;100100.25;;;8.81;100.00
47726;BME280;33483;48.294;16.388;2023-05-20T03:33:04;100106.56;;;8.87;100.00
47726;BME280;33483;48.294;16.388;2023-05-20T03:35:32;100109.06;;;8.90;100.00
47726;BME280;33483;48.294;16.388;2023-05-20T03:37:59;100116.84;;;8.97;100.00
47726;BME280;33483;48.294;16.388;2023-05-20T03:40:28;100125.91;;;9.09;100.00
47726;BME280;33483;48.294;16.388;2023-05-20T03:42:55;100119.34;;;9.29;100.00
47726;BME280;33483;48.294;16.388;2023-05-20T03:45:24;100128.13;;;9.55;100.00
47726;BME280;33483;48.294;16.388;2023-05-20T03:47:59;100132.38;;;9.67;100.00
47726;BME280;33483;48.294;16.388;2023-05-20T03:50:27;100121.19;;;10.00;100.00
47726;BME280;33483;48.294;16.388;2023-05-20T03:52:57;100121.06;;;10.33;100.00
47726;BME280;33483;48.294;16.388;2023-05-20T03:55:24;100127.19;;;10.61;100.00
47726;BME280;33483;48.294;16.388;2023-05-20T03:57:54;100132.50;;;10.59;100.00
47726;BME280;33483;48.294;16.388;2023-05-20T04:00:21;100121.56;;;10.72;100.00
47726;BME280;33483;48.294;16.388;2023-05-20T04:02:51;100109.38;;;10.86;100.00
47726;BME280;33483;48.294;16.388;2023-05-20T04:05:19;100109.22;;;10.73;100.00
47726;BME280;33483;48.294;16.388;2023-05-20T04:07:47;100108.97;;;10.71;100.00
47726;BME280;33483;48.294;16.388;2023-05-20T04:10:18;100112.94;;;10.81;100.00
47726;BME280;33483;48.294;16.388;2023-05-20T04:12:46;100094.00;;;10.85;100.00
47726;BME280;33483;48.294;16.388;2023-05-20T04:15:14;100105.72;;;11.02;100.00
47726;BME280;33483;48.294;16.388;2023-05-20T04:18:01;100101.69;;;11.03;100.00
47726;BME280;33483;48.294;16.388;2023-05-20T04:20:31;100101.91;;;11.05;100.00
47726;BME280;33483;48.294;16.388;2023-05-20T04:22:59;100115.59;;;11.27;100.00
47726;BME280;33483;48.294;16.388;2023-05-20T04:25:26;100118.38;;;11.27;100.00
47726;BME280;33483;48.294;16.388;2023-05-20T04:27:54;100122.78;;;11.42;100.00
47726;BME280;33483;48.294;16.388;2023-05-20T04:30:23;100131.50;;;11.51;100.00
47726;BME280;33483;48.294;16.388;2023-05-20T04:32:50;100138.44;;;11.63;100.00
47726;BME280;33483;48.294;16.388;2023-05-20T04:35:18;100138.19;;;11.67;100.00
47726;BME280;33483;48.294;16.388;2023-05-20T04:37:47;100142.78;;;11.64;100.00
47726;BME280;33483;48.294;16.388;2023-05-20T04:40:15;100151.84;;;11.65;100.00
47726;BME280;33483;48.294;16.388;2023-05-20T04:42:43;100156.38;;;11.68;100.00
47726;BME280;33483;48.294;16.388;2023-05-20T04:45:11;100146.47;;;11.72;100.00
47726;BME280;33483;48.294;16.388;2023-05-20T04:47:40;100148.44;;;11.77;100.00
47726;BME280;33483;48.294;16.388;2023-05-20T04:50:08;100146.75;;;11.93;100.00
47726;BME280;33483;48.294;16.388;2023-05-20T04:52:41;100148.50;;;11.96;100.00
47726;BME280;33483;48.294;16.388;2023-05-20T04:55:11;100155.72;;;12.23;100.00
47726;BME280;33483;48.294;16.388;2023-05-20T04:57:39;100154.09;;;12.33;100.00
47726;BME280;33483;48.294;16.388;2023-05-20T05:00:11;100149.16;;;12.44;100.00
47726;BME280;33483;48.294;16.388;2023-05-20T05:02:39;100145.84;;;12.46;100.00
47726;BME280;33483;48.294;16.388;2023-05-20T05:05:07;100140.72;;;12.69;100.00
47726;BME280;33483;48.294;16.388;2023-05-20T05:07:35;100139.41;;;12.88;100.00
47726;BME280;33483;48.294;16.388;2023-05-20T05:10:02;100141.72;;;13.34;100.00
47726;BME280;33483;48.294;16.388;2023-05-20T05:12:31;100133.13;;;13.19;100.00
47726;BME280;33483;48.294;16.388;2023-05-20T05:14:58;100140.66;;;13.37;100.00
47726;BME280;33483;48.294;16.388;2023-05-20T05:17:26;100138.66;;;13.64;100.00
47726;BME280;33483;48.294;16.388;2023-05-20T05:19:56;100132.03;;;13.80;100.00
47726;BME280;33483;48.294;16.388;2023-05-20T05:22:26;100128.69;;;13.95;100.00
47726;BME280;33483;48.294;16.388;2023-05-20T05:24:53;100137.81;;;14.08;100.00
47726;BME280;33483;48.294;16.388;2023-05-20T05:27:22;100140.16;;;14.04;100.00
47726;BME280;33483;48.294;16.388;2023-05-20T05:29:49;100144.88;;;14.09;100.00
47726;BME280;33483;48.294;16.388;2023-05-20T05:32:17;100143.50;;;14.03;100.00
47726;BME280;33483;48.294;16.388;2023-05-20T05:34:44;100142.19;;;14.43;100.00
47726;BME280;33483;48.294;16.388;2023-05-20T05:37:12;100151.69;;;15.15;100.00
47726;BME280;33483;48.294;16.388;2023-05-20T05:39:40;100160.63;;;15.54;100.00
47726;BME280;33483;48.294;16.388;2023-05-20T05:42:08;100160.94;;;16.00;100.00
47726;BME280;33483;48.294;16.388;2023-05-20T05:44:35;100162.94;;;16.27;100.00
47726;BME280;33483;48.294;16.388;2023-05-20T05:47:04;100155.63;;;16.17;100.00
47726;BME280;33483;48.294;16.388;2023-05-20T05:49:35;100158.72;;;16.06;100.00
47726;BME280;33483;48.294;16.388;2023-05-20T05:52:02;100160.53;;;15.96;100.00
47726;BME280;33483;48.294;16.388;2023-05-20T05:54:32;100156.81;;;15.93;100.00
47726;BME280;33483;48.294;16.388;2023-05-20T05:57:00;100158.09;;;16.28;100.00
47726;BME280;33483;48.294;16.388;2023-05-20T05:59:33;100157.88;;;16.54;100.00
47726;BME280;33483;48.294;16.388;2023-05-20T06:02:01;100161.34;;;17.05;100.00
47726;BME280;33483;48.294;16.388;2023-05-20T06:04:28;100165.09;;;17.00;100.00
47726;BME280;33483;48.294;16.388;2023-05-20T06:06:57;100161.00;;;17.01;100.00
47726;BME280;33483;48.294;16.388;2023-05-20T06:09:24;100158.72;;;16.84;100.00
47726;BME280;33483;48.294;16.388;2023-05-20T06:11:52;100150.84;;;16.68;100.00
47726;BME280;33483;48.294;16.388;2023-05-20T06:14:19;100146.34;;;16.72;100.00
47726;BME280;33483;48.294;16.388;2023-05-20T06:16:47;100143.38;;;16.70;100.00
47726;BME280;33483;48.294;16.388;2023-05-20T06:19:16;100141.34;;;16.86;100.00
47726;BME280;33483;48.294;16.388;2023-05-20T06:21:46;100142.13;;;16.94;100.00
47726;BME280;33483;48.294;16.388;2023-05-20T06:24:13;100146.06;;;17.21;100.00
47726;BME280;33483;48.294;16.388;2023-05-20T06:26:40;100138.44;;;17.44;100.00
47726;BME280;33483;48.294;16.388;2023-05-20T06:29:07;100139.03;;;17.50;100.00
47726;BME280;33483;48.294;16.388;2023-05-20T06:31:35;100138.44;;;17.67;100.00
47726;BME280;33483;48.294;16.388;2023-05-20T06:34:02;100150.66;;;18.17;100.00
47726;BME280;33483;48.294;16.388;2023-05-20T06:36:32;100152.25;;;18.50;100.00
47726;BME280;33483;48.294;16.388;2023-05-20T06:38:59;100145.91;;;18.49;100.00
47726;BME280;33483;48.294;16.388;2023-05-20T06:41:28;100156.78;;;18.45;100.00
47726;BME280;33483;48.294;16.388;2023-05-20T06:43:55;100151.75;;;18.76;100.00
47726;BME280;33483;48.294;16.388;2023-05-20T06:46:28;100154.91;;;18.80;100.00
47726;BME280;33483;48.294;16.388;2023-05-20T06:49:02;100156.75;;;18.53;100.00
47726;BME280;33483;48.294;16.388;2023-05-20T06:51:30;100160.75;;;18.74;100.00
47726;BME280;33483;48.294;16.388;2023-05-20T06:53:58;100161.66;;;20.00;100.00
47726;BME280;33483;48.294;16.388;2023-05-20T06:56:25;100155.38;;;19.92;100.00
47726;BME280;33483;48.294;16.388;2023-05-20T06:58:53;100156.63;;;19.98;100.00
47726;BME280;33483;48.294;16.388;2023-05-20T07:01:21;100154.94;;;19.61;100.00
47726;BME280;33483;48.294;16.388;2023-05-20T07:03:49;100148.94;;;19.08;100.00
47726;BME280;33483;48.294;16.388;2023-05-20T07:06:17;100153.25;;;19.58;100.00
47726;BME280;33483;48.294;16.388;2023-05-20T07:08:44;100155.59;;;19.20;100.00
47726;BME280;33483;48.294;16.388;2023-05-20T07:11:14;100151.84;;;18.93;100.00
47726;BME280;33483;48.294;16.388;2023-05-20T07:13:41;100148.59;;;19.29;100.00
47726;BME280;33483;48.294;16.388;2023-05-20T07:16:11;100142.25;;;20.29;100.00
47726;BME280;33483;48.294;16.388;2023-05-20T07:18:43;100139.97;;;21.51;97.93
47726;BME280;33483;48.294;16.388;2023-05-20T07:21:10;100148.78;;;21.28;90.61
47726;BME280;33483;48.294;16.388;2023-05-20T07:24:04;100154.34;;;22.29;75.24
47726;BME280;33483;48.294;16.388;2023-05-20T07:26:31;100152.94;;;23.68;71.65
47726;BME280;33483;48.294;16.388;2023-05-20T07:29:02;100160.97;;;24.34;66.23
47726;BME280;33483;48.294;16.388;2023-05-20T07:31:30;100164.78;;;25.16;62.44
47726;BME280;33483;48.294;16.388;2023-05-20T07:34:00;100157.81;;;25.40;58.41
47726;BME280;33483;48.294;16.388;2023-05-20T07:36:27;100157.28;;;25.32;58.79
47726;BME280;33483;48.294;16.388;2023-05-20T07:38:58;100162.63;;;25.37;57.64
47726;BME280;33483;48.294;16.388;2023-05-20T07:41:33;100147.41;;;25.79;58.29
47726;BME280;33483;48.294;16.388;2023-05-20T07:44:01;100159.41;;;26.51;50.81
47726;BME280;33483;48.294;16.388;2023-05-20T07:46:28;100157.47;;;26.42;50.18
47726;BME280;33483;48.294;16.388;2023-05-20T07:48:56;100149.59;;;27.04;47.40
47726;BME280;33483;48.294;16.388;2023-05-20T07:51:23;100150.81;;;26.62;49.77
47726;BME280;33483;48.294;16.388;2023-05-20T07:53:51;100152.00;;;25.38;50.66
47726;BME280;33483;48.294;16.388;2023-05-20T07:56:19;100148.19;;;24.45;54.13
47726;BME280;33483;48.294;16.388;2023-05-20T07:58:52;100140.63;;;23.23;61.22
47726;BME280;33483;48.294;16.388;2023-05-20T08:01:20;100137.13;;;23.95;58.44
47726;BME280;33483;48.294;16.388;2023-05-20T08:03:48;100141.81;;;24.89;56.65
47726;BME280;33483;48.294;16.388;2023-05-20T08:06:19;100143.28;;;26.05;54.21
47726;BME280;33483;48.294;16.388;2023-05-20T08:08:50;100140.34;;;27.04;49.31
47726;BME280;33483;48.294;16.388;2023-05-20T08:11:24;100150.06;;;26.74;51.09
47726;BME280;33483;48.294;16.388;2023-05-20T08:13:52;100132.31;;;25.88;50.14
47726;BME280;33483;48.294;16.388;2023-05-20T08:16:21;100136.72;;;26.64;48.42
47726;BME280;33483;48.294;16.388;2023-05-20T08:18:49;100138.09;;;26.89;47.97
47726;BME280;33483;48.294;16.388;2023-05-20T08:21:19;100130.16;;;27.26;52.63
47726;BME280;33483;48.294;16.388;2023-05-20T08:23:47;100138.44;;;26.95;47.57
47726;BME280;33483;48.294;16.388;2023-05-20T08:26:14;100124.84;;;27.07;48.77
47726;BME280;33483;48.294;16.388;2023-05-20T08:28:42;100122.94;;;26.98;48.66
47726;BME280;33483;48.294;16.388;2023-05-20T08:31:09;100110.66;;;26.82;51.41
47726;BME280;33483;48.294;16.388;2023-05-20T08:33:39;100109.16;;;26.17;50.26
47726;BME280;33483;48.294;16.388;2023-05-20T08:36:06;100104.50;;;25.98;51.34
47726;BME280;33483;48.294;16.388;2023-05-20T08:38:34;100109.16;;;25.57;53.53
47726;BME280;33483;48.294;16.388;2023-05-20T08:41:02;100100.81;;;25.84;51.56
47726;BME280;33483;48.294;16.388;2023-05-20T08:43:30;100097.22;;;25.47;55.15
47726;BME280;33483;48.294;16.388;2023-05-20T08:45:59;100098.44;;;25.21;58.52
47726;BME280;33483;48.294;16.388;2023-05-20T08:48:31;100088.66;;;24.78;59.00
47726;BME280;33483;48.294;16.388;2023-05-20T08:50:59;100080.13;;;24.22;64.83
47726;BME280;33483;48.294;16.388;2023-05-20T08:53:28;100086.97;;;23.86;64.68
47726;BME280;33483;48.294;16.388;2023-05-20T08:55:58;100086.97;;;24.07;60.84
47726;BME280;33483;48.294;16.388;2023-05-20T08:58:31;100091.09;;;24.27;60.96
47726;BME280;33483;48.294;16.388;2023-05-20T09:01:01;100092.59;;;24.73;58.37
47726;BME280;33483;48.294;16.388;2023-05-20T09:03:31;100093.69;;;24.68;58.81
47726;BME280;33483;48.294;16.388;2023-05-20T09:06:07;100088.16;;;24.70;59.79
47726;BME280;33483;48.294;16.388;2023-05-20T09:08:35;100083.00;;;25.01;57.62
47726;BME280;33483;48.294;16.388;2023-05-20T09:11:05;100076.72;;;25.48;56.99
47726;BME280;33483;48.294;16.388;2023-05-20T09:13:35;100064.66;;;25.13;59.39
47726;BME280;33483;48.294;16.388;2023-05-20T09:16:02;100066.59;;;25.11;59.14
47726;BME280;33483;48.294;16.388;2023-05-20T09:18:30;100063.78;;;25.11;62.23
47726;BME280;33483;48.294;16.388;2023-05-20T09:21:03;100062.19;;;24.96;57.77
47726;BME280;33483;48.294;16.388;2023-05-20T09:23:31;100060.56;;;24.70;60.07
47726;BME280;33483;48.294;16.388;2023-05-20T09:25:59;100060.94;;;24.32;60.63
47726;BME280;33483;48.294;16.388;2023-05-20T09:28:27;100056.31;;;24.04;63.68
47726;BME280;33483;48.294;16.388;2023-05-20T09:30:58;100059.75;;;24.02;63.33
47726;BME280;33483;48.294;16.388;2023-05-20T09:33:26;100056.13;;;23.69;64.76
47726;BME280;33483;48.294;16.388;2023-05-20T09:36:17;100063.72;;;23.88;69.91
47726;BME280;33483;48.294;16.388;2023-05-20T09:38:43;100074.03;;;24.37;63.85
47726;BME280;33483;48.294;16.388;2023-05-20T09:41:11;100059.84;;;24.93;60.73
47726;BME280;33483;48.294;16.388;2023-05-20T09:43:39;100072.78;;;25.30;58.13
47726;BME280;33483;48.294;16.388;2023-05-20T09:46:07;100057.50;;;25.84;58.45
47726;BME280;33483;48.294;16.388;2023-05-20T09:48:35;100061.63;;;26.06;55.44
47726;BME280;33483;48.294;16.388;2023-05-20T09:51:05;100053.28;;;26.46;53.38
47726;BME280;33483;48.294;16.388;2023-05-20T09:57:24;100054.31;;;27.73;50.13
47726;BME280;33483;48.294;16.388;2023-05-20T10:00:09;100058.69;;;28.32;49.71
47726;BME280;33483;48.294;16.388;2023-05-20T10:02:43;100068.13;;;27.92;48.93
47726;BME280;33483;48.294;16.388;2023-05-20T10:05:13;100060.56;;;27.69;49.17
47726;BME280;33483;48.294;16.388;2023-05-20T10:07:53;100053.88;;;28.21;49.26
47726;BME280;33483;48.294;16.388;2023-05-20T10:18:21;100049.28;;;29.06;48.00
47726;BME280;33483;48.294;16.388;2023-05-20T10:20:51;100048.09;;;28.95;45.89
47726;BME280;33483;48.294;16.388;2023-05-20T10:23:19;100043.03;;;28.94;44.54
47726;BME280;33483;48.294;16.388;2023-05-20T10:25:50;100050.94;;;28.79;44.89
47726;BME280;33483;48.294;16.388;2023-05-20T10:30:55;100038.03;;;28.78;45.71
47726;BME280;33483;48.294;16.388;2023-05-20T10:33:23;100028.88;;;28.64;45.51
47726;BME280;33483;48.294;16.388;2023-05-20T10:35:50;100022.50;;;28.97;44.89
47726;BME280;33483;48.294;16.388;2023-05-20T10:38:18;100023.78;;;28.78;45.76
47726;BME280;33483;48.294;16.388;2023-05-20T10:40:46;100015.22;;;28.78;45.19
47726;BME280;33483;48.294;16.388;2023-05-20T10:43:15;100015.97;;;28.63;46.15
47726;BME280;33483;48.294;16.388;2023-05-20T10:45:47;100015.69;;;28.89;45.49
47726;BME280;33483;48.294;16.388;2023-05-20T10:48:24;99997.94;;;27.56;51.04
47726;BME280;33483;48.294;16.388;2023-05-20T10:50:56;99991.56;;;28.00;47.94
47726;BME280;33483;48.294;16.388;2023-05-20T10:53:25;99987.72;;;27.80;50.35
47726;BME280;33483;48.294;16.388;2023-05-20T10:56:00;99982.06;;;28.40;50.56
47726;BME280;33483;48.294;16.388;2023-05-20T10:58:34;99986.56;;;28.45;51.70
47726;BME280;33483;48.294;16.388;2023-05-20T11:01:02;99982.13;;;28.71;48.52
47726;BME280;33483;48.294;16.388;2023-05-20T11:03:29;99982.06;;;29.18;46.95
47726;BME280;33483;48.294;16.388;2023-05-20T11:06:00;99982.38;;;28.62;46.00
47726;BME280;33483;48.294;16.388;2023-05-20T11:08:28;99974.72;;;28.82;45.57
47726;BME280;33483;48.294;16.388;2023-05-20T11:10:57;99978.97;;;28.65;44.35
47726;BME280;33483;48.294;16.388;2023-05-20T11:13:25;99987.97;;;28.75;43.96
47726;BME280;33483;48.294;16.388;2023-05-20T11:15:53;99970.94;;;28.93;45.00
47726;BME280;33483;48.294;16.388;2023-05-20T11:18:21;99970.56;;;28.23;46.90
47726;BME280;33483;48.294;16.388;2023-05-20T11:20:48;99962.31;;;28.60;46.21
47726;BME280;33483;48.294;16.388;2023-05-20T11:23:15;99961.97;;;28.67;44.49
47726;BME280;33483;48.294;16.388;2023-05-20T11:25:42;99961.38;;;28.87;45.02
47726;BME280;33483;48.294;16.388;2023-05-20T11:28:13;99950.69;;;29.36;44.61
47726;BME280;33483;48.294;16.388;2023-05-20T11:30:43;99959.72;;;28.35;45.53
47726;BME280;33483;48.294;16.388;2023-05-20T11:33:11;99957.03;;;28.08;47.33
47726;BME280;33483;48.294;16.388;2023-05-20T11:35:43;99959.53;;;28.31;49.22
47726;BME280;33483;48.294;16.388;2023-05-20T11:38:11;99967.41;;;27.72;47.31
47726;BME280;33483;48.294;16.388;2023-05-20T11:40:42;99964.56;;;27.72;45.78
47726;BME280;33483;48.294;16.388;2023-05-20T11:43:13;99968.19;;;27.59;46.79
47726;BME280;33483;48.294;16.388;2023-05-20T11:45:40;99964.19;;;27.80;45.81
47726;BME280;33483;48.294;16.388;2023-05-20T11:48:10;99960.28;;;27.57;48.57
47726;BME280;33483;48.294;16.388;2023-05-20T11:50:44;99953.78;;;27.70;44.71
47726;BME280;33483;48.294;16.388;2023-05-20T11:53:19;99961.94;;;26.93;47.45
47726;BME280;33483;48.294;16.388;2023-05-20T11:58:21;99960.28;;;26.35;47.15
47726;BME280;33483;48.294;16.388;2023-05-20T12:00:48;99943.31;;;26.76;49.49
47726;BME280;33483;48.294;16.388;2023-05-20T12:03:25;99950.19;;;26.32;48.63
47726;BME280;33483;48.294;16.388;2023-05-20T12:05:53;99945.94;;;25.95;49.58
47726;BME280;33483;48.294;16.388;2023-05-20T12:08:20;99945.22;;;25.69;50.89
47726;BME280;33483;48.294;16.388;2023-05-20T12:10:48;99943.84;;;25.45;52.16
47726;BME280;33483;48.294;16.388;2023-05-20T12:13:15;99937.94;;;25.66;54.17
47726;BME280;33483;48.294;16.388;2023-05-20T12:15:43;99936.31;;;25.26;52.52
47726;BME280;33483;48.294;16.388;2023-05-20T12:18:10;99936.00;;;25.20;52.13
47726;BME280;33483;48.294;16.388;2023-05-20T12:20:41;99939.25;;;25.03;51.47
47726;BME280;33483;48.294;16.388;2023-05-20T12:23:10;99928.84;;;25.08;51.06
47726;BME280;33483;48.294;16.388;2023-05-20T12:25:37;99937.91;;;24.93;51.24
47726;BME280;33483;48.294;16.388;2023-05-20T12:28:05;99924.22;;;25.37;51.70
47726;BME280;33483;48.294;16.388;2023-05-20T12:30:32;99924.22;;;25.37;50.69
47726;BME280;33483;48.294;16.388;2023-05-20T12:33:02;99917.69;;;25.35;50.38
47726;BME280;33483;48.294;16.388;2023-05-20T12:35:37;99910.63;;;25.73;51.96
47726;BME280;33483;48.294;16.388;2023-05-20T12:38:04;99916.69;;;25.92;51.67
47726;BME280;33483;48.294;16.388;2023-05-20T12:40:34;99914.25;;;25.87;53.36
47726;BME280;33483;48.294;16.388;2023-05-20T12:43:05;99910.03;;;26.13;52.68
47726;BME280;33483;48.294;16.388;2023-05-20T12:45:32;99911.44;;;26.00;52.07
47726;BME280;33483;48.294;16.388;2023-05-20T12:47:59;99911.13;;;25.94;51.68
47726;BME280;33483;48.294;16.388;2023-05-20T12:50:29;99903.63;;;25.37;53.12
47726;BME280;33483;48.294;16.388;2023-05-20T12:52:56;99915.78;;;25.51;49.42
47726;BME280;33483;48.294;16.388;2023-05-20T12:55:23;99902.19;;;25.61;51.29
47726;BME280;33483;48.294;16.388;2023-05-20T12:57:53;99913.06;;;25.53;50.48
47726;BME280;33483;48.294;16.388;2023-05-20T13:00:21;99915.50;;;25.22;50.91
47726;BME280;33483;48.294;16.388;2023-05-20T13:02:48;99909.00;;;25.08;51.03